KMWA

Veterans of Southern Illinois Airport

Marion, Illinois, USA
METAR KMWA 230055Z AUTO 00000KT 10SM CLR 23/19 A3000 RMK AO2 T02300187
Observed Flight Rules
May-23 @ 00:55 UTC (26 minutes ago) Visual Flight Rules
Visibility Clouds
10 miles
  • Clear skies
Temperatures Readings
Current 23°C / 73°F
Dewpoint 19°C / 66°F
Humidity 78%
Altimeter 30" Hg
Pressure 1016 hPa
Elevation 144
METAR KMWA 230055Z AUTO 00000KT 10SM CLR 23/19 A3000 RMK AO2 T02300187
Observed Flight Rules
May-23 @ 00:55 UTC
(26 minutes ago)
VFR
Clouds
  • Clear skies
Temperature Dewpoint
23°C / 73°F 19°C / 66°F
Humidity Altimeter Pressure
78% 30" Hg 1016 hPa